Delaware County Johnson Field Muncie US
ICAO: KMIE
IATA: MIE
Category: Medium
Scheduled Services: No

Elevation: 937 ft
TransAlt. 18000 ft.

Airport Communications:
ASOS:114.4
ATIS:133.25
INDIANAPOLIS CNTR:120.65
CTAF:120.1
MUNCIE GND:121.9
TERRE HAUTE RDO:114.4
MUNCIE TWR:120.1
UNICOM:122.95

KMIE Zoom In..

If Map Doesn't Load, Click Here

Runways:

(A) RW 02 length 5198 ft width 100 ft
---- / hdg 25

(B) RW 14 length 6500 ft width 150 ft
---- / hdg 139

(C) RW 20 length 5198 ft width 100 ft
---- / hdg 205

(D) RW 32 length 6500 ft width 150 ft
ILS 109.10 / hdg 319

Location; KMIE
Day. 21 / Time. 14.53 Zulu
* Altimeter: 29.97
* Temperature: 30° c. 86°f.
* Wind from: 250° Speed 16 kn with Gusts up to 24 kn.
Dewpoint: 19° c.
Visibility: 10 Statute Miles.
Clouds: Clear (automated report).

KMIE 211453Z 25016G24KT 10SM CLR 30/19 A2997 RMK AO2 SLP134 T03000194 53006


Wind From 250°
Speed 16 kn.

 
 
jpsmedia.com for Web Design worldairports.se 2018   terms of use